Weather at José Leonardo Chirinos Airport

Public forecast

Using degrees Celsius for public forecast. Weather courtesy of forecast.io.

Current aviation weather report (METAR) for José Leonardo Chirinos Airport

Report is more than 6 hours old.

Retrieved 2021/07/25 11:00 UTC (10 months ago):

SVCR 251100Z ZNIL

Closest aviation forecast (TAF) to José Leonardo Chirinos Airport

Forecast is more than 12 hours old.

Closest forecast is Josefa Camejo International Airport, 35.3 nm (65.4 km) NW. Retrieved 2022/05/17 06:00 UTC (2 days ago):

TAF SVJC 170400Z 1706/1806 09010KT 9999 SCT016 TX33/1719Z TN23/1707Z BECMG 1706/1710 09003KT 9999 SCT016 BKN100